sensor_id;sensor_type;location;lat;lon;timestamp;P1;durP1;ratioP1;P2;durP2;ratioP2
12511;SDS011;6321;53.798;10.382;2023-06-22T00:01:27;3.97;;;3.57;;
12511;SDS011;6321;53.798;10.382;2023-06-22T00:03:53;3.57;;;3.27;;
12511;SDS011;6321;53.798;10.382;2023-06-22T00:06:19;3.90;;;3.50;;
12511;SDS011;6321;53.798;10.382;2023-06-22T00:08:45;6.30;;;4.17;;
12511;SDS011;6321;53.798;10.382;2023-06-22T00:11:11;5.13;;;3.93;;
12511;SDS011;6321;53.798;10.382;2023-06-22T00:13:37;3.93;;;3.63;;
12511;SDS011;6321;53.798;10.382;2023-06-22T00:16:04;6.33;;;3.60;;
12511;SDS011;6321;53.798;10.382;2023-06-22T00:18:29;4.27;;;3.30;;
12511;SDS011;6321;53.798;10.382;2023-06-22T00:20:57;3.93;;;3.50;;
12511;SDS011;6321;53.798;10.382;2023-06-22T00:23:23;4.57;;;3.77;;
12511;SDS011;6321;53.798;10.382;2023-06-22T00:25:49;6.60;;;4.23;;
12511;SDS011;6321;53.798;10.382;2023-06-22T00:28:15;4.43;;;3.33;;
12511;SDS011;6321;53.798;10.382;2023-06-22T00:30:41;5.43;;;3.70;;
12511;SDS011;6321;53.798;10.382;2023-06-22T00:33:07;4.20;;;3.50;;
12511;SDS011;6321;53.798;10.382;2023-06-22T00:35:33;6.87;;;3.63;;
12511;SDS011;6321;53.798;10.382;2023-06-22T00:38:00;4.27;;;3.90;;
12511;SDS011;6321;53.798;10.382;2023-06-22T00:40:27;5.13;;;3.83;;
12511;SDS011;6321;53.798;10.382;2023-06-22T00:42:54;4.13;;;3.60;;
12511;SDS011;6321;53.798;10.382;2023-06-22T00:45:20;4.17;;;3.53;;
12511;SDS011;6321;53.798;10.382;2023-06-22T00:47:48;3.73;;;3.40;;
12511;SDS011;6321;53.798;10.382;2023-06-22T00:50:15;4.17;;;3.73;;
12511;SDS011;6321;53.798;10.382;2023-06-22T00:52:45;4.27;;;3.77;;
12511;SDS011;6321;53.798;10.382;2023-06-22T00:55:11;4.73;;;4.00;;
12511;SDS011;6321;53.798;10.382;2023-06-22T00:57:37;4.47;;;3.70;;
12511;SDS011;6321;53.798;10.382;2023-06-22T01:00:04;4.17;;;3.77;;
12511;SDS011;6321;53.798;10.382;2023-06-22T01:02:34;5.93;;;4.43;;
12511;SDS011;6321;53.798;10.382;2023-06-22T01:05:01;5.07;;;3.83;;
12511;SDS011;6321;53.798;10.382;2023-06-22T01:10:03;5.30;;;4.03;;
12511;SDS011;6321;53.798;10.382;2023-06-22T01:12:34;4.77;;;3.90;;
12511;SDS011;6321;53.798;10.382;2023-06-22T01:15:02;6.70;;;4.00;;
12511;SDS011;6321;53.798;10.382;2023-06-22T01:17:30;6.80;;;4.83;;
12511;SDS011;6321;53.798;10.382;2023-06-22T01:19:57;5.17;;;4.03;;
12511;SDS011;6321;53.798;10.382;2023-06-22T01:22:26;7.00;;;4.07;;
12511;SDS011;6321;53.798;10.382;2023-06-22T01:25:07;7.67;;;5.03;;
12511;SDS011;6321;53.798;10.382;2023-06-22T01:27:40;6.10;;;4.90;;
12511;SDS011;6321;53.798;10.382;2023-06-22T01:30:11;4.27;;;3.93;;
12511;SDS011;6321;53.798;10.382;2023-06-22T01:32:40;4.73;;;4.27;;
12511;SDS011;6321;53.798;10.382;2023-06-22T01:35:07;6.03;;;3.90;;
12511;SDS011;6321;53.798;10.382;2023-06-22T01:37:33;5.10;;;3.93;;
12511;SDS011;6321;53.798;10.382;2023-06-22T01:40:00;5.53;;;4.03;;
12511;SDS011;6321;53.798;10.382;2023-06-22T01:42:26;4.63;;;4.03;;
12511;SDS011;6321;53.798;10.382;2023-06-22T01:44:53;5.67;;;4.27;;
12511;SDS011;6321;53.798;10.382;2023-06-22T01:47:20;5.67;;;4.20;;
12511;SDS011;6321;53.798;10.382;2023-06-22T01:49:46;6.50;;;4.13;;
12511;SDS011;6321;53.798;10.382;2023-06-22T01:52:12;4.60;;;4.20;;
12511;SDS011;6321;53.798;10.382;2023-06-22T01:54:39;5.10;;;4.60;;
12511;SDS011;6321;53.798;10.382;2023-06-22T01:57:05;6.63;;;4.70;;
12511;SDS011;6321;53.798;10.382;2023-06-22T01:59:34;4.57;;;4.17;;
12511;SDS011;6321;53.798;10.382;2023-06-22T02:02:06;6.90;;;4.43;;
12511;SDS011;6321;53.798;10.382;2023-06-22T02:04:55;7.70;;;4.63;;
12511;SDS011;6321;53.798;10.382;2023-06-22T02:07:19;4.93;;;4.03;;
12511;SDS011;6321;53.798;10.382;2023-06-22T02:09:46;4.00;;;3.60;;
12511;SDS011;6321;53.798;10.382;2023-06-22T02:12:23;5.07;;;4.57;;
12511;SDS011;6321;53.798;10.382;2023-06-22T02:14:50;6.93;;;4.23;;
12511;SDS011;6321;53.798;10.382;2023-06-22T02:17:17;5.73;;;4.33;;
12511;SDS011;6321;53.798;10.382;2023-06-22T02:19:43;5.77;;;4.60;;
12511;SDS011;6321;53.798;10.382;2023-06-22T02:22:09;5.03;;;4.60;;
12511;SDS011;6321;53.798;10.382;2023-06-22T02:24:37;4.60;;;4.10;;
12511;SDS011;6321;53.798;10.382;2023-06-22T02:27:03;6.27;;;4.33;;
12511;SDS011;6321;53.798;10.382;2023-06-22T02:29:31;4.27;;;3.90;;
12511;SDS011;6321;53.798;10.382;2023-06-22T02:31:57;4.57;;;4.17;;
12511;SDS011;6321;53.798;10.382;2023-06-22T02:34:24;5.43;;;4.33;;
12511;SDS011;6321;53.798;10.382;2023-06-22T02:36:50;4.63;;;4.23;;
12511;SDS011;6321;53.798;10.382;2023-06-22T02:39:20;4.50;;;4.10;;
12511;SDS011;6321;53.798;10.382;2023-06-22T02:41:47;4.63;;;3.87;;
12511;SDS011;6321;53.798;10.382;2023-06-22T02:44:13;4.30;;;3.90;;
12511;SDS011;6321;53.798;10.382;2023-06-22T02:46:39;4.97;;;4.57;;
12511;SDS011;6321;53.798;10.382;2023-06-22T02:49:05;5.70;;;4.00;;
12511;SDS011;6321;53.798;10.382;2023-06-22T02:51:32;4.50;;;3.97;;
12511;SDS011;6321;53.798;10.382;2023-06-22T02:53:59;4.93;;;3.80;;
12511;SDS011;6321;53.798;10.382;2023-06-22T02:56:25;5.30;;;3.93;;
12511;SDS011;6321;53.798;10.382;2023-06-22T02:58:51;5.40;;;4.37;;
12511;SDS011;6321;53.798;10.382;2023-06-22T03:01:17;5.87;;;4.23;;
12511;SDS011;6321;53.798;10.382;2023-06-22T03:03:49;4.47;;;4.07;;
12511;SDS011;6321;53.798;10.382;2023-06-22T03:06:15;4.83;;;4.33;;
12511;SDS011;6321;53.798;10.382;2023-06-22T03:08:41;5.33;;;4.23;;
12511;SDS011;6321;53.798;10.382;2023-06-22T03:11:07;5.83;;;3.97;;
12511;SDS011;6321;53.798;10.382;2023-06-22T03:13:33;3.83;;;3.53;;
12511;SDS011;6321;53.798;10.382;2023-06-22T03:15:59;4.83;;;4.20;;
12511;SDS011;6321;53.798;10.382;2023-06-22T03:18:25;4.27;;;3.87;;
12511;SDS011;6321;53.798;10.382;2023-06-22T03:20:51;5.77;;;4.40;;
12511;SDS011;6321;53.798;10.382;2023-06-22T03:23:16;4.90;;;4.50;;
12511;SDS011;6321;53.798;10.382;2023-06-22T03:25:42;5.70;;;5.10;;
12511;SDS011;6321;53.798;10.382;2023-06-22T03:28:09;4.43;;;4.03;;
12511;SDS011;6321;53.798;10.382;2023-06-22T03:30:35;5.43;;;4.70;;
12511;SDS011;6321;53.798;10.382;2023-06-22T03:33:01;5.27;;;4.50;;
12511;SDS011;6321;53.798;10.382;2023-06-22T03:35:27;8.40;;;4.27;;
12511;SDS011;6321;53.798;10.382;2023-06-22T03:37:53;4.43;;;4.03;;
12511;SDS011;6321;53.798;10.382;2023-06-22T03:40:19;4.63;;;4.10;;
12511;SDS011;6321;53.798;10.382;2023-06-22T03:42:45;4.40;;;4.00;;
12511;SDS011;6321;53.798;10.382;2023-06-22T03:45:11;4.90;;;4.40;;
12511;SDS011;6321;53.798;10.382;2023-06-22T03:47:37;7.33;;;3.90;;
12511;SDS011;6321;53.798;10.382;2023-06-22T03:50:03;5.53;;;4.23;;
12511;SDS011;6321;53.798;10.382;2023-06-22T03:52:30;4.47;;;4.07;;
12511;SDS011;6321;53.798;10.382;2023-06-22T03:54:57;4.63;;;3.80;;
12511;SDS011;6321;53.798;10.382;2023-06-22T03:57:23;4.77;;;4.37;;
12511;SDS011;6321;53.798;10.382;2023-06-22T03:59:49;6.10;;;4.30;;
12511;SDS011;6321;53.798;10.382;2023-06-22T04:02:15;6.13;;;5.00;;
12511;SDS011;6321;53.798;10.382;2023-06-22T04:04:41;5.73;;;5.07;;
12511;SDS011;6321;53.798;10.382;2023-06-22T04:07:07;6.00;;;4.63;;
12511;SDS011;6321;53.798;10.382;2023-06-22T04:09:33;4.97;;;4.57;;
12511;SDS011;6321;53.798;10.382;2023-06-22T04:11:59;4.80;;;4.40;;
12511;SDS011;6321;53.798;10.382;2023-06-22T04:14:25;4.53;;;4.13;;
12511;SDS011;6321;53.798;10.382;2023-06-22T04:16:51;6.17;;;4.67;;
12511;SDS011;6321;53.798;10.382;2023-06-22T04:19:17;6.93;;;5.63;;
12511;SDS011;6321;53.798;10.382;2023-06-22T04:21:43;6.80;;;4.60;;
12511;SDS011;6321;53.798;10.382;2023-06-22T04:24:09;7.37;;;4.83;;
12511;SDS011;6321;53.798;10.382;2023-06-22T04:26:35;8.37;;;6.47;;
12511;SDS011;6321;53.798;10.382;2023-06-22T04:29:05;7.33;;;6.63;;
12511;SDS011;6321;53.798;10.382;2023-06-22T04:31:31;7.73;;;7.03;;
12511;SDS011;6321;53.798;10.382;2023-06-22T04:34:01;7.33;;;6.63;;
12511;SDS011;6321;53.798;10.382;2023-06-22T04:36:32;8.10;;;7.10;;
12511;SDS011;6321;53.798;10.382;2023-06-22T04:39:02;7.47;;;6.87;;
12511;SDS011;6321;53.798;10.382;2023-06-22T04:41:28;7.60;;;6.90;;
12511;SDS011;6321;53.798;10.382;2023-06-22T04:43:54;8.10;;;7.30;;
12511;SDS011;6321;53.798;10.382;2023-06-22T04:46:24;9.07;;;7.13;;
12511;SDS011;6321;53.798;10.382;2023-06-22T04:48:50;8.67;;;7.77;;
12511;SDS011;6321;53.798;10.382;2023-06-22T04:51:16;11.20;;;8.60;;
12511;SDS011;6321;53.798;10.382;2023-06-22T04:53:46;9.27;;;8.27;;
12511;SDS011;6321;53.798;10.382;2023-06-22T04:56:12;10.57;;;8.43;;
12511;SDS011;6321;53.798;10.382;2023-06-22T04:58:40;9.40;;;7.50;;
12511;SDS011;6321;53.798;10.382;2023-06-22T05:01:06;9.80;;;8.80;;
12511;SDS011;6321;53.798;10.382;2023-06-22T05:03:33;10.63;;;8.80;;
12511;SDS011;6321;53.798;10.382;2023-06-22T05:06:01;10.07;;;7.97;;
12511;SDS011;6321;53.798;10.382;2023-06-22T05:08:27;10.80;;;9.10;;
12511;SDS011;6321;53.798;10.382;2023-06-22T05:10:53;11.87;;;8.53;;
12511;SDS011;6321;53.798;10.382;2023-06-22T05:13:19;8.90;;;8.00;;
12511;SDS011;6321;53.798;10.382;2023-06-22T05:15:46;10.53;;;8.67;;
12511;SDS011;6321;53.798;10.382;2023-06-22T05:18:12;10.07;;;9.07;;
12511;SDS011;6321;53.798;10.382;2023-06-22T05:20:38;10.07;;;8.57;;
12511;SDS011;6321;53.798;10.382;2023-06-22T05:23:04;11.43;;;9.50;;
12511;SDS011;6321;53.798;10.382;2023-06-22T05:25:30;9.77;;;8.40;;
12511;SDS011;6321;53.798;10.382;2023-06-22T05:27:57;10.07;;;9.07;;
12511;SDS011;6321;53.798;10.382;2023-06-22T05:30:23;12.80;;;9.00;;
12511;SDS011;6321;53.798;10.382;2023-06-22T05:32:49;9.83;;;8.70;;
12511;SDS011;6321;53.798;10.382;2023-06-22T05:35:17;11.40;;;10.30;;
12511;SDS011;6321;53.798;10.382;2023-06-22T05:37:43;13.50;;;8.70;;
12511;SDS011;6321;53.798;10.382;2023-06-22T05:40:09;10.63;;;9.60;;
12511;SDS011;6321;53.798;10.382;2023-06-22T05:42:35;12.03;;;9.30;;
12511;SDS011;6321;53.798;10.382;2023-06-22T05:45:01;11.53;;;10.20;;
12511;SDS011;6321;53.798;10.382;2023-06-22T05:47:27;10.83;;;9.50;;
12511;SDS011;6321;53.798;10.382;2023-06-22T05:49:53;11.50;;;10.33;;
12511;SDS011;6321;53.798;10.382;2023-06-22T05:52:19;13.10;;;9.53;;
12511;SDS011;6321;53.798;10.382;2023-06-22T05:54:45;11.63;;;10.43;;
12511;SDS011;6321;53.798;10.382;2023-06-22T05:57:11;13.83;;;11.80;;
12511;SDS011;6321;53.798;10.382;2023-06-22T05:59:37;11.57;;;10.37;;
12511;SDS011;6321;53.798;10.382;2023-06-22T06:02:03;11.57;;;9.77;;
12511;SDS011;6321;53.798;10.382;2023-06-22T06:04:29;12.27;;;10.97;;
12511;SDS011;6321;53.798;10.382;2023-06-22T06:06:55;10.47;;;9.47;;
12511;SDS011;6321;53.798;10.382;2023-06-22T06:09:22;11.47;;;9.13;;
12511;SDS011;6321;53.798;10.382;2023-06-22T06:11:48;11.30;;;8.63;;
12511;SDS011;6321;53.798;10.382;2023-06-22T06:14:13;11.30;;;8.70;;
12511;SDS011;6321;53.798;10.382;2023-06-22T06:16:42;13.83;;;8.57;;
12511;SDS011;6321;53.798;10.382;2023-06-22T06:19:07;15.23;;;8.67;;
12511;SDS011;6321;53.798;10.382;2023-06-22T06:21:33;9.77;;;7.47;;
12511;SDS011;6321;53.798;10.382;2023-06-22T06:23:59;9.30;;;7.70;;
12511;SDS011;6321;53.798;10.382;2023-06-22T06:26:25;8.07;;;7.13;;
12511;SDS011;6321;53.798;10.382;2023-06-22T06:28:57;7.10;;;6.40;;
12511;SDS011;6321;53.798;10.382;2023-06-22T06:31:23;8.33;;;6.57;;
12511;SDS011;6321;53.798;10.382;2023-06-22T06:33:52;5.87;;;4.83;;
12511;SDS011;6321;53.798;10.382;2023-06-22T06:36:19;5.50;;;4.43;;
12511;SDS011;6321;53.798;10.382;2023-06-22T06:38:45;5.23;;;4.00;;
12511;SDS011;6321;53.798;10.382;2023-06-22T06:41:12;7.33;;;4.47;;
12511;SDS011;6321;53.798;10.382;2023-06-22T06:43:38;6.63;;;5.73;;
12511;SDS011;6321;53.798;10.382;2023-06-22T06:46:04;6.37;;;5.77;;
12511;SDS011;6321;53.798;10.382;2023-06-22T06:48:30;6.23;;;4.77;;
12511;SDS011;6321;53.798;10.382;2023-06-22T06:50:56;7.90;;;5.03;;
12511;SDS011;6321;53.798;10.382;2023-06-22T06:53:22;8.73;;;5.90;;
12511;SDS011;6321;53.798;10.382;2023-06-22T06:55:48;5.37;;;4.53;;
12511;SDS011;6321;53.798;10.382;2023-06-22T06:58:14;7.47;;;4.70;;
12511;SDS011;6321;53.798;10.382;2023-06-22T07:00:41;8.57;;;5.70;;
12511;SDS011;6321;53.798;10.382;2023-06-22T07:03:08;5.87;;;5.20;;
12511;SDS011;6321;53.798;10.382;2023-06-22T07:05:34;6.00;;;5.37;;
12511;SDS011;6321;53.798;10.382;2023-06-22T07:08:00;9.80;;;6.07;;
12511;SDS011;6321;53.798;10.382;2023-06-22T07:10:26;6.57;;;5.80;;
12511;SDS011;6321;53.798;10.382;2023-06-22T07:12:52;8.63;;;5.53;;
12511;SDS011;6321;53.798;10.382;2023-06-22T07:15:18;6.10;;;5.50;;
12511;SDS011;6321;53.798;10.382;2023-06-22T07:17:44;6.80;;;5.43;;
12511;SDS011;6321;53.798;10.382;2023-06-22T07:20:10;5.33;;;4.57;;
12511;SDS011;6321;53.798;10.382;2023-06-22T07:22:40;5.13;;;4.47;;
12511;SDS011;6321;53.798;10.382;2023-06-22T07:25:07;4.87;;;4.43;;
12511;SDS011;6321;53.798;10.382;2023-06-22T07:27:40;4.37;;;3.83;;
12511;SDS011;6321;53.798;10.382;2023-06-22T07:30:08;4.57;;;4.10;;
12511;SDS011;6321;53.798;10.382;2023-06-22T07:32:34;4.93;;;4.17;;
12511;SDS011;6321;53.798;10.382;2023-06-22T07:35:00;4.53;;;3.63;;
12511;SDS011;6321;53.798;10.382;2023-06-22T07:37:27;5.03;;;3.73;;
12511;SDS011;6321;53.798;10.382;2023-06-22T07:39:53;6.53;;;3.77;;
12511;SDS011;6321;53.798;10.382;2023-06-22T07:42:23;5.47;;;3.33;;
12511;SDS011;6321;53.798;10.382;2023-06-22T07:44:49;7.23;;;3.57;;
12511;SDS011;6321;53.798;10.382;2023-06-22T07:47:16;4.40;;;3.30;;
12511;SDS011;6321;53.798;10.382;2023-06-22T07:49:44;4.00;;;3.60;;
12511;SDS011;6321;53.798;10.382;2023-06-22T07:52:10;5.10;;;4.03;;
12511;SDS011;6321;53.798;10.382;2023-06-22T07:54:36;5.13;;;3.80;;
12511;SDS011;6321;53.798;10.382;2023-06-22T07:57:02;4.50;;;4.10;;
12511;SDS011;6321;53.798;10.382;2023-06-22T07:59:28;5.30;;;3.53;;
12511;SDS011;6321;53.798;10.382;2023-06-22T08:01:54;4.03;;;3.57;;
12511;SDS011;6321;53.798;10.382;2023-06-22T08:04:20;4.20;;;3.43;;
12511;SDS011;6321;53.798;10.382;2023-06-22T08:06:46;6.20;;;3.80;;
12511;SDS011;6321;53.798;10.382;2023-06-22T08:09:13;5.07;;;4.07;;
12511;SDS011;6321;53.798;10.382;2023-06-22T08:11:39;3.80;;;3.50;;
12511;SDS011;6321;53.798;10.382;2023-06-22T08:14:05;4.40;;;4.00;;
12511;SDS011;6321;53.798;10.382;2023-06-22T08:16:31;3.90;;;3.50;;
12511;SDS011;6321;53.798;10.382;2023-06-22T08:18:57;6.77;;;4.07;;
12511;SDS011;6321;53.798;10.382;2023-06-22T08:21:23;4.17;;;3.77;;
12511;SDS011;6321;53.798;10.382;2023-06-22T08:23:49;4.73;;;3.70;;
12511;SDS011;6321;53.798;10.382;2023-06-22T08:26:15;4.93;;;3.60;;
12511;SDS011;6321;53.798;10.382;2023-06-22T08:28:41;3.73;;;3.40;;
12511;SDS011;6321;53.798;10.382;2023-06-22T08:31:07;4.00;;;3.53;;
12511;SDS011;6321;53.798;10.382;2023-06-22T08:33:33;5.23;;;3.50;;
12511;SDS011;6321;53.798;10.382;2023-06-22T08:35:59;4.10;;;3.70;;
12511;SDS011;6321;53.798;10.382;2023-06-22T08:38:25;3.93;;;3.63;;
12511;SDS011;6321;53.798;10.382;2023-06-22T08:40:51;3.67;;;3.27;;
12511;SDS011;6321;53.798;10.382;2023-06-22T08:43:17;3.67;;;3.37;;
12511;SDS011;6321;53.798;10.382;2023-06-22T08:45:43;6.47;;;3.50;;
12511;SDS011;6321;53.798;10.382;2023-06-22T08:48:09;3.93;;;3.53;;
12511;SDS011;6321;53.798;10.382;2023-06-22T08:50:35;3.73;;;3.43;;
12511;SDS011;6321;53.798;10.382;2023-06-22T08:53:01;4.30;;;3.90;;
12511;SDS011;6321;53.798;10.382;2023-06-22T08:55:27;4.63;;;3.90;;
12511;SDS011;6321;53.798;10.382;2023-06-22T08:57:53;5.57;;;3.87;;
12511;SDS011;6321;53.798;10.382;2023-06-22T09:00:19;3.77;;;3.27;;
12511;SDS011;6321;53.798;10.382;2023-06-22T09:02:46;4.27;;;3.27;;
12511;SDS011;6321;53.798;10.382;2023-06-22T09:05:12;3.70;;;3.40;;
12511;SDS011;6321;53.798;10.382;2023-06-22T09:07:38;4.00;;;3.23;;
12511;SDS011;6321;53.798;10.382;2023-06-22T09:10:05;5.77;;;3.83;;
12511;SDS011;6321;53.798;10.382;2023-06-22T09:12:31;4.47;;;3.73;;
12511;SDS011;6321;53.798;10.382;2023-06-22T09:14:58;4.03;;;3.50;;
12511;SDS011;6321;53.798;10.382;2023-06-22T09:17:25;4.10;;;3.60;;
12511;SDS011;6321;53.798;10.382;2023-06-22T09:19:51;3.63;;;3.30;;
12511;SDS011;6321;53.798;10.382;2023-06-22T09:22:17;4.93;;;3.60;;
12511;SDS011;6321;53.798;10.382;2023-06-22T09:24:43;3.80;;;3.40;;
12511;SDS011;6321;53.798;10.382;2023-06-22T09:27:09;4.53;;;3.40;;
12511;SDS011;6321;53.798;10.382;2023-06-22T09:29:35;6.43;;;3.87;;
12511;SDS011;6321;53.798;10.382;2023-06-22T09:32:01;4.73;;;3.30;;
12511;SDS011;6321;53.798;10.382;2023-06-22T09:34:27;4.43;;;3.70;;
12511;SDS011;6321;53.798;10.382;2023-06-22T09:36:53;5.87;;;3.90;;
12511;SDS011;6321;53.798;10.382;2023-06-22T09:39:20;3.40;;;3.10;;
12511;SDS011;6321;53.798;10.382;2023-06-22T09:41:46;4.20;;;3.50;;
12511;SDS011;6321;53.798;10.382;2023-06-22T09:44:11;3.07;;;2.77;;
12511;SDS011;6321;53.798;10.382;2023-06-22T09:46:37;3.40;;;3.00;;
12511;SDS011;6321;53.798;10.382;2023-06-22T09:49:03;2.93;;;2.63;;
12511;SDS011;6321;53.798;10.382;2023-06-22T09:51:29;3.00;;;2.70;;
12511;SDS011;6321;53.798;10.382;2023-06-22T09:53:55;4.23;;;3.27;;
12511;SDS011;6321;53.798;10.382;2023-06-22T09:56:21;3.83;;;3.00;;
12511;SDS011;6321;53.798;10.382;2023-06-22T09:58:47;3.10;;;2.90;;
12511;SDS011;6321;53.798;10.382;2023-06-22T10:01:15;5.03;;;2.83;;
12511;SDS011;6321;53.798;10.382;2023-06-22T10:03:41;3.70;;;3.40;;
12511;SDS011;6321;53.798;10.382;2023-06-22T10:06:07;3.50;;;3.20;;
12511;SDS011;6321;53.798;10.382;2023-06-22T10:08:34;4.03;;;2.90;;
12511;SDS011;6321;53.798;10.382;2023-06-22T10:11:00;5.07;;;3.67;;
12511;SDS011;6321;53.798;10.382;2023-06-22T10:13:26;4.83;;;3.20;;
12511;SDS011;6321;53.798;10.382;2023-06-22T10:15:52;3.40;;;3.10;;
12511;SDS011;6321;53.798;10.382;2023-06-22T10:18:18;3.83;;;3.43;;
12511;SDS011;6321;53.798;10.382;2023-06-22T10:20:47;4.03;;;3.27;;
12511;SDS011;6321;53.798;10.382;2023-06-22T10:23:13;5.03;;;3.50;;
12511;SDS011;6321;53.798;10.382;2023-06-22T10:25:39;4.50;;;3.37;;
12511;SDS011;6321;53.798;10.382;2023-06-22T10:28:05;5.17;;;3.50;;
12511;SDS011;6321;53.798;10.382;2023-06-22T10:30:30;7.27;;;3.13;;
12511;SDS011;6321;53.798;10.382;2023-06-22T10:32:56;4.70;;;3.77;;
12511;SDS011;6321;53.798;10.382;2023-06-22T10:35:22;3.70;;;3.40;;
12511;SDS011;6321;53.798;10.382;2023-06-22T10:37:48;3.80;;;3.50;;
12511;SDS011;6321;53.798;10.382;2023-06-22T10:40:16;5.13;;;4.03;;
12511;SDS011;6321;53.798;10.382;2023-06-22T10:42:43;3.80;;;3.50;;
12511;SDS011;6321;53.798;10.382;2023-06-22T10:45:11;3.60;;;3.30;;
12511;SDS011;6321;53.798;10.382;2023-06-22T10:47:37;3.47;;;3.00;;
12511;SDS011;6321;53.798;10.382;2023-06-22T10:50:03;4.30;;;3.90;;
12511;SDS011;6321;53.798;10.382;2023-06-22T10:52:29;4.37;;;3.93;;
12511;SDS011;6321;53.798;10.382;2023-06-22T10:54:55;4.20;;;3.50;;
12511;SDS011;6321;53.798;10.382;2023-06-22T10:57:21;3.90;;;3.60;;
12511;SDS011;6321;53.798;10.382;2023-06-22T10:59:47;4.23;;;3.93;;
12511;SDS011;6321;53.798;10.382;2023-06-22T11:02:13;4.10;;;3.70;;
12511;SDS011;6321;53.798;10.382;2023-06-22T11:04:39;4.20;;;3.80;;
12511;SDS011;6321;53.798;10.382;2023-06-22T11:07:05;4.50;;;4.10;;
12511;SDS011;6321;53.798;10.382;2023-06-22T11:09:31;5.00;;;4.23;;
12511;SDS011;6321;53.798;10.382;2023-06-22T11:11:57;5.53;;;3.77;;
12511;SDS011;6321;53.798;10.382;2023-06-22T11:14:24;4.43;;;4.03;;
12511;SDS011;6321;53.798;10.382;2023-06-22T11:16:50;4.30;;;3.90;;
12511;SDS011;6321;53.798;10.382;2023-06-22T11:19:16;7.47;;;3.93;;
12511;SDS011;6321;53.798;10.382;2023-06-22T11:21:42;4.30;;;4.00;;
12511;SDS011;6321;53.798;10.382;2023-06-22T11:24:08;4.37;;;3.87;;
12511;SDS011;6321;53.798;10.382;2023-06-22T11:26:34;4.07;;;3.67;;
12511;SDS011;6321;53.798;10.382;2023-06-22T11:29:00;3.77;;;3.47;;
12511;SDS011;6321;53.798;10.382;2023-06-22T11:31:30;4.53;;;4.13;;
12511;SDS011;6321;53.798;10.382;2023-06-22T11:33:55;4.27;;;3.70;;
12511;SDS011;6321;53.798;10.382;2023-06-22T11:36:21;4.07;;;3.77;;
12511;SDS011;6321;53.798;10.382;2023-06-22T11:38:47;4.03;;;3.47;;
12511;SDS011;6321;53.798;10.382;2023-06-22T11:41:13;4.72;;;4.32;;
12511;SDS011;6321;53.798;10.382;2023-06-22T11:43:39;4.63;;;4.23;;
12511;SDS011;6321;53.798;10.382;2023-06-22T11:46:05;4.80;;;4.37;;
12511;SDS011;6321;53.798;10.382;2023-06-22T11:48:31;5.37;;;4.47;;
12511;SDS011;6321;53.798;10.382;2023-06-22T11:50:57;4.80;;;4.37;;
12511;SDS011;6321;53.798;10.382;2023-06-22T11:53:24;4.27;;;3.90;;
12511;SDS011;6321;53.798;10.382;2023-06-22T11:55:50;4.37;;;3.97;;
12511;SDS011;6321;53.798;10.382;2023-06-22T11:58:17;4.10;;;3.77;;
12511;SDS011;6321;53.798;10.382;2023-06-22T12:00:43;5.13;;;3.80;;
12511;SDS011;6321;53.798;10.382;2023-06-22T12:03:10;5.40;;;4.60;;
12511;SDS011;6321;53.798;10.382;2023-06-22T12:05:36;5.70;;;4.37;;
12511;SDS011;6321;53.798;10.382;2023-06-22T12:08:02;4.57;;;4.17;;
12511;SDS011;6321;53.798;10.382;2023-06-22T12:10:28;3.87;;;3.57;;
12511;SDS011;6321;53.798;10.382;2023-06-22T12:12:54;4.40;;;4.00;;
12511;SDS011;6321;53.798;10.382;2023-06-22T12:15:22;4.93;;;4.43;;
12511;SDS011;6321;53.798;10.382;2023-06-22T12:17:48;7.03;;;4.37;;
12511;SDS011;6321;53.798;10.382;2023-06-22T12:20:14;6.17;;;5.20;;
12511;SDS011;6321;53.798;10.382;2023-06-22T12:22:40;4.88;;;4.40;;
12511;SDS011;6321;53.798;10.382;2023-06-22T12:25:07;5.20;;;4.70;;
12511;SDS011;6321;53.798;10.382;2023-06-22T12:27:33;5.20;;;4.70;;
12511;SDS011;6321;53.798;10.382;2023-06-22T12:29:59;4.90;;;4.50;;
12511;SDS011;6321;53.798;10.382;2023-06-22T12:32:25;4.83;;;4.43;;
12511;SDS011;6321;53.798;10.382;2023-06-22T12:34:51;6.60;;;4.47;;
12511;SDS011;6321;53.798;10.382;2023-06-22T12:37:17;4.73;;;4.33;;
12511;SDS011;6321;53.798;10.382;2023-06-22T12:39:44;5.50;;;4.53;;
12511;SDS011;6321;53.798;10.382;2023-06-22T12:42:10;5.23;;;4.70;;
12511;SDS011;6321;53.798;10.382;2023-06-22T12:44:39;5.97;;;4.60;;
12511;SDS011;6321;53.798;10.382;2023-06-22T12:47:06;5.27;;;4.30;;
12511;SDS011;6321;53.798;10.382;2023-06-22T12:49:33;5.33;;;4.83;;
12511;SDS011;6321;53.798;10.382;2023-06-22T12:51:59;18.50;;;17.27;;
12511;SDS011;6321;53.798;10.382;2023-06-22T12:54:25;5.87;;;4.60;;
12511;SDS011;6321;53.798;10.382;2023-06-22T12:56:51;8.23;;;5.23;;
12511;SDS011;6321;53.798;10.382;2023-06-22T12:59:17;5.83;;;5.23;;
12511;SDS011;6321;53.798;10.382;2023-06-22T13:01:43;5.20;;;4.60;;
12511;SDS011;6321;53.798;10.382;2023-06-22T13:04:10;5.23;;;4.73;;
12511;SDS011;6321;53.798;10.382;2023-06-22T13:06:39;7.70;;;4.70;;
12511;SDS011;6321;53.798;10.382;2023-06-22T13:09:05;4.67;;;4.27;;
12511;SDS011;6321;53.798;10.382;2023-06-22T13:11:31;4.93;;;4.60;;
12511;SDS011;6321;53.798;10.382;2023-06-22T13:13:57;5.10;;;4.67;;
12511;SDS011;6321;53.798;10.382;2023-06-22T13:16:23;6.37;;;4.40;;
12511;SDS011;6321;53.798;10.382;2023-06-22T13:18:49;8.03;;;4.73;;
12511;SDS011;6321;53.798;10.382;2023-06-22T13:21:15;4.43;;;4.03;;
12511;SDS011;6321;53.798;10.382;2023-06-22T13:23:41;5.13;;;4.73;;
12511;SDS011;6321;53.798;10.382;2023-06-22T13:26:07;4.77;;;4.33;;
12511;SDS011;6321;53.798;10.382;2023-06-22T13:28:33;6.97;;;4.03;;
12511;SDS011;6321;53.798;10.382;2023-06-22T13:30:59;5.20;;;4.63;;
12511;SDS011;6321;53.798;10.382;2023-06-22T13:33:25;4.83;;;4.40;;
12511;SDS011;6321;53.798;10.382;2023-06-22T13:35:51;4.47;;;3.97;;
12511;SDS011;6321;53.798;10.382;2023-06-22T13:38:16;8.43;;;4.90;;
12511;SDS011;6321;53.798;10.382;2023-06-22T13:40:42;5.00;;;4.10;;
12511;SDS011;6321;53.798;10.382;2023-06-22T13:43:08;4.93;;;4.27;;
12511;SDS011;6321;53.798;10.382;2023-06-22T13:45:34;5.20;;;4.70;;
12511;SDS011;6321;53.798;10.382;2023-06-22T13:48:00;5.00;;;4.50;;
12511;SDS011;6321;53.798;10.382;2023-06-22T13:50:27;5.17;;;4.17;;
12511;SDS011;6321;53.798;10.382;2023-06-22T13:52:54;7.50;;;4.10;;
12511;SDS011;6321;53.798;10.382;2023-06-22T13:55:21;4.77;;;4.17;;
12511;SDS011;6321;53.798;10.382;2023-06-22T13:57:48;4.43;;;4.03;;
12511;SDS011;6321;53.798;10.382;2023-06-22T14:00:14;4.83;;;4.43;;
12511;SDS011;6321;53.798;10.382;2023-06-22T14:02:40;5.03;;;4.40;;
12511;SDS011;6321;53.798;10.382;2023-06-22T14:05:06;5.20;;;4.80;;
12511;SDS011;6321;53.798;10.382;2023-06-22T14:07:32;4.77;;;4.37;;
12511;SDS011;6321;53.798;10.382;2023-06-22T14:09:59;4.57;;;4.17;;
12511;SDS011;6321;53.798;10.382;2023-06-22T14:12:25;5.17;;;4.63;;
12511;SDS011;6321;53.798;10.382;2023-06-22T14:14:51;6.80;;;4.47;;
12511;SDS011;6321;53.798;10.382;2023-06-22T14:17:17;4.63;;;4.27;;
12511;SDS011;6321;53.798;10.382;2023-06-22T14:19:48;4.53;;;4.10;;
12511;SDS011;6321;53.798;10.382;2023-06-22T14:22:14;5.90;;;3.53;;
12511;SDS011;6321;53.798;10.382;2023-06-22T14:24:40;4.97;;;3.83;;
12511;SDS011;6321;53.798;10.382;2023-06-22T14:27:06;5.57;;;3.70;;
12511;SDS011;6321;53.798;10.382;2023-06-22T14:29:33;4.17;;;3.87;;
12511;SDS011;6321;53.798;10.382;2023-06-22T14:31:59;5.70;;;3.93;;
12511;SDS011;6321;53.798;10.382;2023-06-22T14:34:25;4.10;;;3.80;;
12511;SDS011;6321;53.798;10.382;2023-06-22T14:36:51;4.17;;;3.70;;
12511;SDS011;6321;53.798;10.382;2023-06-22T14:39:17;4.83;;;4.33;;
12511;SDS011;6321;53.798;10.382;2023-06-22T14:41:43;5.27;;;4.13;;
12511;SDS011;6321;53.798;10.382;2023-06-22T14:44:09;5.63;;;3.73;;